sensor_id;sensor_type;location;lat;lon;timestamp;temperature;humidity
25438;DHT22;13364;49.084;9.978;2023-08-17T00:01:54;21.70;83.70
25438;DHT22;13364;49.084;9.978;2023-08-17T00:04:21;21.60;83.50
25438;DHT22;13364;49.084;9.978;2023-08-17T00:06:48;21.50;82.20
25438;DHT22;13364;49.084;9.978;2023-08-17T00:09:15;21.40;82.50
25438;DHT22;13364;49.084;9.978;2023-08-17T00:11:42;21.30;82.70
25438;DHT22;13364;49.084;9.978;2023-08-17T00:14:11;21.20;84.00
25438;DHT22;13364;49.084;9.978;2023-08-17T00:16:39;21.10;84.90
25438;DHT22;13364;49.084;9.978;2023-08-17T00:19:06;21.00;85.30
25438;DHT22;13364;49.084;9.978;2023-08-17T00:21:34;21.10;85.50
25438;DHT22;13364;49.084;9.978;2023-08-17T00:24:01;21.10;85.90
25438;DHT22;13364;49.084;9.978;2023-08-17T00:26:28;21.10;85.90
25438;DHT22;13364;49.084;9.978;2023-08-17T00:33:13;21.10;85.70
25438;DHT22;13364;49.084;9.978;2023-08-17T00:35:40;21.10;86.20
25438;DHT22;13364;49.084;9.978;2023-08-17T00:38:07;21.10;86.00
25438;DHT22;13364;49.084;9.978;2023-08-17T00:40:34;21.10;86.00
25438;DHT22;13364;49.084;9.978;2023-08-17T00:43:02;21.10;86.20
25438;DHT22;13364;49.084;9.978;2023-08-17T00:45:29;21.10;86.50
25438;DHT22;13364;49.084;9.978;2023-08-17T00:47:57;21.10;86.60
25438;DHT22;13364;49.084;9.978;2023-08-17T00:50:26;21.10;87.00
25438;DHT22;13364;49.084;9.978;2023-08-17T00:52:55;21.10;87.00
25438;DHT22;13364;49.084;9.978;2023-08-17T00:55:23;21.10;86.90
25438;DHT22;13364;49.084;9.978;2023-08-17T00:57:52;21.20;86.70
25438;DHT22;13364;49.084;9.978;2023-08-17T01:00:20;21.20;86.70
25438;DHT22;13364;49.084;9.978;2023-08-17T01:02:49;21.20;86.70
25438;DHT22;13364;49.084;9.978;2023-08-17T01:05:16;21.10;86.40
25438;DHT22;13364;49.084;9.978;2023-08-17T01:07:43;21.10;86.50
25438;DHT22;13364;49.084;9.978;2023-08-17T01:10:10;21.10;86.40
25438;DHT22;13364;49.084;9.978;2023-08-17T01:15:37;21.00;86.20
25438;DHT22;13364;49.084;9.978;2023-08-17T01:18:23;20.90;86.30
25438;DHT22;13364;49.084;9.978;2023-08-17T01:20:53;20.90;86.50
25438;DHT22;13364;49.084;9.978;2023-08-17T01:23:22;20.80;86.60
25438;DHT22;13364;49.084;9.978;2023-08-17T01:30:16;20.70;87.00
25438;DHT22;13364;49.084;9.978;2023-08-17T01:32:54;20.70;87.40
25438;DHT22;13364;49.084;9.978;2023-08-17T01:35:37;20.60;87.90
25438;DHT22;13364;49.084;9.978;2023-08-17T01:38:12;20.50;88.10
25438;DHT22;13364;49.084;9.978;2023-08-17T01:40:44;20.50;88.40
25438;DHT22;13364;49.084;9.978;2023-08-17T01:43:12;20.50;88.40
25438;DHT22;13364;49.084;9.978;2023-08-17T01:45:43;20.40;89.00
25438;DHT22;13364;49.084;9.978;2023-08-17T01:48:10;20.30;89.50
25438;DHT22;13364;49.084;9.978;2023-08-17T01:50:38;20.20;90.20
25438;DHT22;13364;49.084;9.978;2023-08-17T01:53:05;20.10;90.60
25438;DHT22;13364;49.084;9.978;2023-08-17T01:55:32;20.00;90.80
25438;DHT22;13364;49.084;9.978;2023-08-17T01:57:59;20.10;90.70
25438;DHT22;13364;49.084;9.978;2023-08-17T02:00:26;20.10;91.50
25438;DHT22;13364;49.084;9.978;2023-08-17T02:02:53;20.10;92.20
25438;DHT22;13364;49.084;9.978;2023-08-17T02:05:21;20.10;92.60
25438;DHT22;13364;49.084;9.978;2023-08-17T02:07:48;20.10;93.10
25438;DHT22;13364;49.084;9.978;2023-08-17T02:10:15;19.90;93.40
25438;DHT22;13364;49.084;9.978;2023-08-17T02:12:42;19.90;93.90
25438;DHT22;13364;49.084;9.978;2023-08-17T02:15:09;19.80;94.50
25438;DHT22;13364;49.084;9.978;2023-08-17T02:17:36;19.70;95.00
25438;DHT22;13364;49.084;9.978;2023-08-17T02:20:04;19.70;95.00
25438;DHT22;13364;49.084;9.978;2023-08-17T02:22:31;19.60;94.80
25438;DHT22;13364;49.084;9.978;2023-08-17T02:29:24;19.60;95.40
25438;DHT22;13364;49.084;9.978;2023-08-17T02:31:51;19.60;95.50
25438;DHT22;13364;49.084;9.978;2023-08-17T02:34:19;19.60;95.90
25438;DHT22;13364;49.084;9.978;2023-08-17T02:36:46;19.60;96.20
25438;DHT22;13364;49.084;9.978;2023-08-17T02:39:13;19.60;96.60
25438;DHT22;13364;49.084;9.978;2023-08-17T02:41:40;19.50;96.80
25438;DHT22;13364;49.084;9.978;2023-08-17T02:44:08;19.50;97.00
25438;DHT22;13364;49.084;9.978;2023-08-17T02:46:35;19.50;97.00
25438;DHT22;13364;49.084;9.978;2023-08-17T02:49:02;19.60;96.30
25438;DHT22;13364;49.084;9.978;2023-08-17T02:51:29;19.50;96.00
25438;DHT22;13364;49.084;9.978;2023-08-17T02:53:57;19.50;96.50
25438;DHT22;13364;49.084;9.978;2023-08-17T02:56:24;19.50;96.70
25438;DHT22;13364;49.084;9.978;2023-08-17T02:58:52;19.50;96.80
25438;DHT22;13364;49.084;9.978;2023-08-17T03:01:19;19.50;96.70
25438;DHT22;13364;49.084;9.978;2023-08-17T03:03:48;19.50;96.60
25438;DHT22;13364;49.084;9.978;2023-08-17T03:06:15;19.60;96.60
25438;DHT22;13364;49.084;9.978;2023-08-17T03:08:42;19.60;96.30
25438;DHT22;13364;49.084;9.978;2023-08-17T03:11:10;19.50;96.40
25438;DHT22;13364;49.084;9.978;2023-08-17T03:13:37;19.50;96.20
25438;DHT22;13364;49.084;9.978;2023-08-17T03:16:05;19.60;96.10
25438;DHT22;13364;49.084;9.978;2023-08-17T03:18:32;19.50;96.10
25438;DHT22;13364;49.084;9.978;2023-08-17T03:20:59;19.60;95.50
25438;DHT22;13364;49.084;9.978;2023-08-17T03:23:26;19.50;95.00
25438;DHT22;13364;49.084;9.978;2023-08-17T03:25:54;19.50;95.00
25438;DHT22;13364;49.084;9.978;2023-08-17T03:28:21;19.50;95.00
25438;DHT22;13364;49.084;9.978;2023-08-17T03:30:49;19.40;95.70
25438;DHT22;13364;49.084;9.978;2023-08-17T03:33:16;19.40;95.80
25438;DHT22;13364;49.084;9.978;2023-08-17T03:35:43;19.40;95.70
25438;DHT22;13364;49.084;9.978;2023-08-17T03:38:10;19.40;95.70
25438;DHT22;13364;49.084;9.978;2023-08-17T03:40:38;19.50;95.60
25438;DHT22;13364;49.084;9.978;2023-08-17T03:43:05;19.50;95.50
25438;DHT22;13364;49.084;9.978;2023-08-17T03:45:32;19.40;96.00
25438;DHT22;13364;49.084;9.978;2023-08-17T03:47:59;19.30;96.40
25438;DHT22;13364;49.084;9.978;2023-08-17T03:50:28;19.30;96.30
25438;DHT22;13364;49.084;9.978;2023-08-17T03:52:55;19.40;95.80
25438;DHT22;13364;49.084;9.978;2023-08-17T03:55:22;19.30;95.90
25438;DHT22;13364;49.084;9.978;2023-08-17T03:57:49;19.30;95.90
25438;DHT22;13364;49.084;9.978;2023-08-17T04:00:17;19.30;96.00
25438;DHT22;13364;49.084;9.978;2023-08-17T04:02:44;19.40;95.70
25438;DHT22;13364;49.084;9.978;2023-08-17T04:05:16;19.40;95.50
25438;DHT22;13364;49.084;9.978;2023-08-17T04:07:44;19.40;95.50
25438;DHT22;13364;49.084;9.978;2023-08-17T04:10:11;19.40;95.50
25438;DHT22;13364;49.084;9.978;2023-08-17T04:12:38;19.40;95.50
25438;DHT22;13364;49.084;9.978;2023-08-17T04:15:06;19.40;95.40
25438;DHT22;13364;49.084;9.978;2023-08-17T04:17:33;19.40;95.30
25438;DHT22;13364;49.084;9.978;2023-08-17T04:20:02;19.50;95.10
25438;DHT22;13364;49.084;9.978;2023-08-17T04:22:30;19.40;95.10
25438;DHT22;13364;49.084;9.978;2023-08-17T04:24:57;19.30;95.40
25438;DHT22;13364;49.084;9.978;2023-08-17T04:27:24;19.30;95.50
25438;DHT22;13364;49.084;9.978;2023-08-17T04:29:52;19.30;95.40
25438;DHT22;13364;49.084;9.978;2023-08-17T04:32:20;19.30;95.30
25438;DHT22;13364;49.084;9.978;2023-08-17T04:34:48;19.40;95.30
25438;DHT22;13364;49.084;9.978;2023-08-17T04:37:15;19.40;95.10
25438;DHT22;13364;49.084;9.978;2023-08-17T04:39:42;19.50;94.70
25438;DHT22;13364;49.084;9.978;2023-08-17T04:42:16;19.50;94.60
25438;DHT22;13364;49.084;9.978;2023-08-17T04:44:43;19.50;94.50
25438;DHT22;13364;49.084;9.978;2023-08-17T04:47:11;19.50;94.50
25438;DHT22;13364;49.084;9.978;2023-08-17T04:49:38;19.50;94.50
25438;DHT22;13364;49.084;9.978;2023-08-17T04:52:05;19.50;94.70
25438;DHT22;13364;49.084;9.978;2023-08-17T04:54:33;19.50;94.70
25438;DHT22;13364;49.084;9.978;2023-08-17T04:57:00;19.50;94.70
25438;DHT22;13364;49.084;9.978;2023-08-17T04:59:28;19.50;94.70
25438;DHT22;13364;49.084;9.978;2023-08-17T05:02:21;19.50;95.00
25438;DHT22;13364;49.084;9.978;2023-08-17T05:04:48;19.50;95.20
25438;DHT22;13364;49.084;9.978;2023-08-17T05:07:16;19.50;95.70
25438;DHT22;13364;49.084;9.978;2023-08-17T05:09:43;19.50;95.70
25438;DHT22;13364;49.084;9.978;2023-08-17T05:12:10;19.60;95.80
25438;DHT22;13364;49.084;9.978;2023-08-17T05:14:37;19.60;96.00
25438;DHT22;13364;49.084;9.978;2023-08-17T05:17:04;19.60;96.10
25438;DHT22;13364;49.084;9.978;2023-08-17T05:19:32;19.70;96.10
25438;DHT22;13364;49.084;9.978;2023-08-17T05:22:00;19.80;96.00
25438;DHT22;13364;49.084;9.978;2023-08-17T05:24:27;19.80;95.90
25438;DHT22;13364;49.084;9.978;2023-08-17T05:26:54;19.80;95.90
25438;DHT22;13364;49.084;9.978;2023-08-17T05:29:22;19.90;95.70
25438;DHT22;13364;49.084;9.978;2023-08-17T05:31:49;19.90;95.70
25438;DHT22;13364;49.084;9.978;2023-08-17T05:34:16;19.90;95.60
25438;DHT22;13364;49.084;9.978;2023-08-17T05:36:44;19.90;95.50
25438;DHT22;13364;49.084;9.978;2023-08-17T05:39:12;20.00;95.60
25438;DHT22;13364;49.084;9.978;2023-08-17T05:41:39;20.00;95.50
25438;DHT22;13364;49.084;9.978;2023-08-17T05:44:06;20.10;95.30
25438;DHT22;13364;49.084;9.978;2023-08-17T05:46:34;20.10;95.10
25438;DHT22;13364;49.084;9.978;2023-08-17T05:49:11;20.20;95.00
25438;DHT22;13364;49.084;9.978;2023-08-17T05:51:38;20.20;94.80
25438;DHT22;13364;49.084;9.978;2023-08-17T05:54:06;20.30;94.90
25438;DHT22;13364;49.084;9.978;2023-08-17T05:56:34;20.30;94.80
25438;DHT22;13364;49.084;9.978;2023-08-17T05:59:01;20.30;94.80
25438;DHT22;13364;49.084;9.978;2023-08-17T06:01:28;20.40;94.60
25438;DHT22;13364;49.084;9.978;2023-08-17T06:03:55;20.40;94.50
25438;DHT22;13364;49.084;9.978;2023-08-17T06:06:23;20.50;94.60
25438;DHT22;13364;49.084;9.978;2023-08-17T06:08:50;20.60;94.40
25438;DHT22;13364;49.084;9.978;2023-08-17T06:11:17;20.60;94.40
25438;DHT22;13364;49.084;9.978;2023-08-17T06:13:52;20.70;94.20
25438;DHT22;13364;49.084;9.978;2023-08-17T06:16:19;20.70;94.00
25438;DHT22;13364;49.084;9.978;2023-08-17T06:18:46;20.80;94.00
25438;DHT22;13364;49.084;9.978;2023-08-17T06:21:13;20.90;93.90
25438;DHT22;13364;49.084;9.978;2023-08-17T06:23:40;20.90;93.80
25438;DHT22;13364;49.084;9.978;2023-08-17T06:26:08;21.00;93.90
25438;DHT22;13364;49.084;9.978;2023-08-17T06:28:35;21.00;93.80
25438;DHT22;13364;49.084;9.978;2023-08-17T06:31:02;21.10;93.50
25438;DHT22;13364;49.084;9.978;2023-08-17T06:33:29;21.20;93.40
25438;DHT22;13364;49.084;9.978;2023-08-17T06:35:57;21.20;93.20
25438;DHT22;13364;49.084;9.978;2023-08-17T06:38:24;21.20;93.10
25438;DHT22;13364;49.084;9.978;2023-08-17T06:40:52;21.30;93.00
25438;DHT22;13364;49.084;9.978;2023-08-17T06:43:19;21.40;93.10
25438;DHT22;13364;49.084;9.978;2023-08-17T06:45:46;21.40;93.10
25438;DHT22;13364;49.084;9.978;2023-08-17T06:48:14;21.50;93.20
25438;DHT22;13364;49.084;9.978;2023-08-17T06:50:41;21.50;93.10
25438;DHT22;13364;49.084;9.978;2023-08-17T06:53:08;21.60;93.20
25438;DHT22;13364;49.084;9.978;2023-08-17T06:55:35;21.60;93.10
25438;DHT22;13364;49.084;9.978;2023-08-17T06:58:03;21.70;92.90
25438;DHT22;13364;49.084;9.978;2023-08-17T07:00:30;21.70;93.10
25438;DHT22;13364;49.084;9.978;2023-08-17T07:02:57;21.70;93.10
25438;DHT22;13364;49.084;9.978;2023-08-17T07:05:27;21.80;92.80
25438;DHT22;13364;49.084;9.978;2023-08-17T07:07:54;21.90;92.70
25438;DHT22;13364;49.084;9.978;2023-08-17T07:10:22;21.90;92.60
25438;DHT22;13364;49.084;9.978;2023-08-17T07:12:49;22.00;92.50
25438;DHT22;13364;49.084;9.978;2023-08-17T07:15:16;22.00;92.40
25438;DHT22;13364;49.084;9.978;2023-08-17T07:17:43;22.10;92.60
25438;DHT22;13364;49.084;9.978;2023-08-17T07:20:11;22.20;92.40
25438;DHT22;13364;49.084;9.978;2023-08-17T07:22:41;22.30;92.30
25438;DHT22;13364;49.084;9.978;2023-08-17T07:25:08;22.40;92.00
25438;DHT22;13364;49.084;9.978;2023-08-17T07:27:35;22.60;91.50
25438;DHT22;13364;49.084;9.978;2023-08-17T07:30:06;22.70;91.10
25438;DHT22;13364;49.084;9.978;2023-08-17T07:32:34;22.70;91.00
25438;DHT22;13364;49.084;9.978;2023-08-17T07:35:06;22.80;90.00
25438;DHT22;13364;49.084;9.978;2023-08-17T07:37:36;22.90;89.70
25438;DHT22;13364;49.084;9.978;2023-08-17T07:40:09;23.00;89.80
25438;DHT22;13364;49.084;9.978;2023-08-17T07:42:37;23.10;89.30
25438;DHT22;13364;49.084;9.978;2023-08-17T07:45:05;23.20;88.80
25438;DHT22;13364;49.084;9.978;2023-08-17T07:47:35;23.30;88.50
25438;DHT22;13364;49.084;9.978;2023-08-17T07:50:08;23.40;88.10
25438;DHT22;13364;49.084;9.978;2023-08-17T07:52:38;23.50;88.00
25438;DHT22;13364;49.084;9.978;2023-08-17T07:55:06;23.60;87.10
25438;DHT22;13364;49.084;9.978;2023-08-17T07:57:35;23.70;87.20
25438;DHT22;13364;49.084;9.978;2023-08-17T08:00:13;23.80;86.90
25438;DHT22;13364;49.084;9.978;2023-08-17T08:03:12;24.00;86.20
25438;DHT22;13364;49.084;9.978;2023-08-17T08:05:39;24.10;85.60
25438;DHT22;13364;49.084;9.978;2023-08-17T08:08:09;24.20;85.10
25438;DHT22;13364;49.084;9.978;2023-08-17T08:10:36;24.30;84.50
25438;DHT22;13364;49.084;9.978;2023-08-17T08:13:14;24.50;83.40
25438;DHT22;13364;49.084;9.978;2023-08-17T08:15:43;24.60;84.00
25438;DHT22;13364;49.084;9.978;2023-08-17T08:18:50;24.70;83.20
25438;DHT22;13364;49.084;9.978;2023-08-17T08:21:39;24.90;82.30
25438;DHT22;13364;49.084;9.978;2023-08-17T08:31:27;25.50;79.90
25438;DHT22;13364;49.084;9.978;2023-08-17T08:33:54;25.60;79.20
25438;DHT22;13364;49.084;9.978;2023-08-17T08:36:21;25.70;79.00
25438;DHT22;13364;49.084;9.978;2023-08-17T08:38:49;25.80;79.60
25438;DHT22;13364;49.084;9.978;2023-08-17T08:41:16;26.00;78.50
25438;DHT22;13364;49.084;9.978;2023-08-17T08:43:44;26.10;79.00
25438;DHT22;13364;49.084;9.978;2023-08-17T08:46:13;26.30;78.30
25438;DHT22;13364;49.084;9.978;2023-08-17T08:48:42;26.50;77.40
25438;DHT22;13364;49.084;9.978;2023-08-17T08:51:13;26.60;75.80
25438;DHT22;13364;49.084;9.978;2023-08-17T08:53:45;26.80;75.00
25438;DHT22;13364;49.084;9.978;2023-08-17T08:56:15;27.00;73.60
25438;DHT22;13364;49.084;9.978;2023-08-17T08:58:47;27.20;72.50
25438;DHT22;13364;49.084;9.978;2023-08-17T09:01:20;27.30;73.10
25438;DHT22;13364;49.084;9.978;2023-08-17T09:03:50;27.50;72.60
25438;DHT22;13364;49.084;9.978;2023-08-17T09:06:19;27.70;72.70
25438;DHT22;13364;49.084;9.978;2023-08-17T09:08:49;27.90;71.40
25438;DHT22;13364;49.084;9.978;2023-08-17T09:11:16;28.00;70.70
25438;DHT22;13364;49.084;9.978;2023-08-17T09:13:43;28.10;71.50
25438;DHT22;13364;49.084;9.978;2023-08-17T09:16:11;28.30;70.80
25438;DHT22;13364;49.084;9.978;2023-08-17T09:18:38;28.40;70.20
25438;DHT22;13364;49.084;9.978;2023-08-17T09:21:06;28.60;69.50
25438;DHT22;13364;49.084;9.978;2023-08-17T09:23:33;28.70;68.80
25438;DHT22;13364;49.084;9.978;2023-08-17T09:26:08;28.70;68.30
25438;DHT22;13364;49.084;9.978;2023-08-17T09:28:38;28.80;68.90
25438;DHT22;13364;49.084;9.978;2023-08-17T09:31:06;29.00;69.90
25438;DHT22;13364;49.084;9.978;2023-08-17T09:33:33;29.20;68.80
25438;DHT22;13364;49.084;9.978;2023-08-17T09:36:01;29.30;68.90
25438;DHT22;13364;49.084;9.978;2023-08-17T09:38:28;29.50;66.70
25438;DHT22;13364;49.084;9.978;2023-08-17T09:40:57;29.70;67.20
25438;DHT22;13364;49.084;9.978;2023-08-17T09:43:25;29.90;65.80
25438;DHT22;13364;49.084;9.978;2023-08-17T09:45:56;30.00;66.60
25438;DHT22;13364;49.084;9.978;2023-08-17T09:48:25;30.10;63.80
25438;DHT22;13364;49.084;9.978;2023-08-17T09:50:53;30.20;64.50
25438;DHT22;13364;49.084;9.978;2023-08-17T09:53:22;30.30;62.80
25438;DHT22;13364;49.084;9.978;2023-08-17T09:55:49;30.30;63.00
25438;DHT22;13364;49.084;9.978;2023-08-17T09:58:17;30.50;64.00
25438;DHT22;13364;49.084;9.978;2023-08-17T10:00:48;30.60;64.00
25438;DHT22;13364;49.084;9.978;2023-08-17T10:03:19;30.70;62.80
25438;DHT22;13364;49.084;9.978;2023-08-17T10:05:59;30.80;61.90
25438;DHT22;13364;49.084;9.978;2023-08-17T10:08:30;30.90;62.90
25438;DHT22;13364;49.084;9.978;2023-08-17T10:10:58;31.00;63.60
25438;DHT22;13364;49.084;9.978;2023-08-17T10:13:41;31.10;61.50
25438;DHT22;13364;49.084;9.978;2023-08-17T10:16:23;31.30;59.80
25438;DHT22;13364;49.084;9.978;2023-08-17T10:18:55;31.40;57.90
25438;DHT22;13364;49.084;9.978;2023-08-17T10:21:36;31.50;58.60
25438;DHT22;13364;49.084;9.978;2023-08-17T10:24:05;31.50;60.50
25438;DHT22;13364;49.084;9.978;2023-08-17T10:26:33;31.60;60.60
25438;DHT22;13364;49.084;9.978;2023-08-17T10:29:02;31.70;60.90
25438;DHT22;13364;49.084;9.978;2023-08-17T10:31:44;31.90;59.50
25438;DHT22;13364;49.084;9.978;2023-08-17T10:34:13;32.10;57.50
25438;DHT22;13364;49.084;9.978;2023-08-17T10:36:41;32.20;57.60
25438;DHT22;13364;49.084;9.978;2023-08-17T10:39:22;32.30;57.80
25438;DHT22;13364;49.084;9.978;2023-08-17T10:41:56;32.40;57.80
25438;DHT22;13364;49.084;9.978;2023-08-17T10:47:22;32.70;58.10
25438;DHT22;13364;49.084;9.978;2023-08-17T10:49:51;32.80;56.20
25438;DHT22;13364;49.084;9.978;2023-08-17T10:52:30;32.90;57.30
25438;DHT22;13364;49.084;9.978;2023-08-17T10:55:00;33.00;54.30
25438;DHT22;13364;49.084;9.978;2023-08-17T10:57:35;33.10;54.30
25438;DHT22;13364;49.084;9.978;2023-08-17T11:03:03;33.00;54.80
25438;DHT22;13364;49.084;9.978;2023-08-17T11:10:58;33.30;54.80
25438;DHT22;13364;49.084;9.978;2023-08-17T11:13:33;33.50;55.00
25438;DHT22;13364;49.084;9.978;2023-08-17T11:16:02;33.60;53.20
25438;DHT22;13364;49.084;9.978;2023-08-17T11:18:32;33.70;52.40
25438;DHT22;13364;49.084;9.978;2023-08-17T11:24:18;34.00;53.10
25438;DHT22;13364;49.084;9.978;2023-08-17T11:26:51;34.10;51.60
25438;DHT22;13364;49.084;9.978;2023-08-17T11:29:19;34.10;51.20
25438;DHT22;13364;49.084;9.978;2023-08-17T11:39:11;34.30;50.30
25438;DHT22;13364;49.084;9.978;2023-08-17T11:41:39;34.20;51.30
25438;DHT22;13364;49.084;9.978;2023-08-17T11:44:12;34.10;51.60
25438;DHT22;13364;49.084;9.978;2023-08-17T11:46:39;34.10;52.40
25438;DHT22;13364;49.084;9.978;2023-08-17T11:49:06;34.20;51.80
25438;DHT22;13364;49.084;9.978;2023-08-17T11:51:33;34.20;51.90
25438;DHT22;13364;49.084;9.978;2023-08-17T11:54:01;34.10;52.80
25438;DHT22;13364;49.084;9.978;2023-08-17T11:56:30;34.10;50.10
25438;DHT22;13364;49.084;9.978;2023-08-17T11:58:58;34.00;51.00
25438;DHT22;13364;49.084;9.978;2023-08-17T12:01:26;34.00;51.90
25438;DHT22;13364;49.084;9.978;2023-08-17T12:03:53;33.90;50.40
25438;DHT22;13364;49.084;9.978;2023-08-17T12:06:21;33.90;50.20
25438;DHT22;13364;49.084;9.978;2023-08-17T12:08:48;33.90;51.50
25438;DHT22;13364;49.084;9.978;2023-08-17T12:11:16;33.90;50.40
25438;DHT22;13364;49.084;9.978;2023-08-17T12:13:53;33.90;50.60
25438;DHT22;13364;49.084;9.978;2023-08-17T12:16:21;33.90;51.90
25438;DHT22;13364;49.084;9.978;2023-08-17T12:18:51;33.80;50.60
25438;DHT22;13364;49.084;9.978;2023-08-17T12:21:24;33.90;53.00
25438;DHT22;13364;49.084;9.978;2023-08-17T12:23:52;34.00;53.60
25438;DHT22;13364;49.084;9.978;2023-08-17T12:26:21;34.00;51.00
25438;DHT22;13364;49.084;9.978;2023-08-17T12:28:49;34.10;50.70
25438;DHT22;13364;49.084;9.978;2023-08-17T12:31:21;34.30;52.10
25438;DHT22;13364;49.084;9.978;2023-08-17T12:33:51;34.40;51.10
25438;DHT22;13364;49.084;9.978;2023-08-17T12:36:18;34.40;51.80
25438;DHT22;13364;49.084;9.978;2023-08-17T12:38:47;34.40;52.60
25438;DHT22;13364;49.084;9.978;2023-08-17T12:41:15;34.30;50.80
25438;DHT22;13364;49.084;9.978;2023-08-17T12:43:43;34.20;52.40
25438;DHT22;13364;49.084;9.978;2023-08-17T12:46:10;34.00;49.60
25438;DHT22;13364;49.084;9.978;2023-08-17T12:48:40;33.60;51.10
25438;DHT22;13364;49.084;9.978;2023-08-17T12:51:08;33.30;52.40
25438;DHT22;13364;49.084;9.978;2023-08-17T12:53:35;33.30;52.40
25438;DHT22;13364;49.084;9.978;2023-08-17T12:56:03;33.10;52.10
25438;DHT22;13364;49.084;9.978;2023-08-17T12:58:31;33.10;54.60
25438;DHT22;13364;49.084;9.978;2023-08-17T13:00:58;33.20;53.70
25438;DHT22;13364;49.084;9.978;2023-08-17T13:03:25;33.30;53.90
25438;DHT22;13364;49.084;9.978;2023-08-17T13:05:53;33.30;54.60
25438;DHT22;13364;49.084;9.978;2023-08-17T13:08:21;33.40;54.60
25438;DHT22;13364;49.084;9.978;2023-08-17T13:10:48;33.50;52.00
25438;DHT22;13364;49.084;9.978;2023-08-17T13:13:15;33.50;54.40
25438;DHT22;13364;49.084;9.978;2023-08-17T13:15:42;33.50;55.00
25438;DHT22;13364;49.084;9.978;2023-08-17T13:18:09;33.40;52.50
25438;DHT22;13364;49.084;9.978;2023-08-17T13:20:36;33.20;53.70
25438;DHT22;13364;49.084;9.978;2023-08-17T13:23:05;33.10;55.30
25438;DHT22;13364;49.084;9.978;2023-08-17T13:25:32;32.90;55.90
25438;DHT22;13364;49.084;9.978;2023-08-17T13:28:00;32.80;54.70
25438;DHT22;13364;49.084;9.978;2023-08-17T13:30:27;32.70;56.40
25438;DHT22;13364;49.084;9.978;2023-08-17T13:32:54;32.60;57.20
25438;DHT22;13364;49.084;9.978;2023-08-17T13:35:22;32.50;57.80
25438;DHT22;13364;49.084;9.978;2023-08-17T13:37:52;32.40;57.60
25438;DHT22;13364;49.084;9.978;2023-08-17T13:40:24;32.30;57.50
25438;DHT22;13364;49.084;9.978;2023-08-17T13:42:51;32.20;54.80
25438;DHT22;13364;49.084;9.978;2023-08-17T13:45:18;32.10;57.60
25438;DHT22;13364;49.084;9.978;2023-08-17T13:47:46;32.10;55.60
25438;DHT22;13364;49.084;9.978;2023-08-17T13:50:13;32.00;55.90
25438;DHT22;13364;49.084;9.978;2023-08-17T13:52:40;31.90;57.30
25438;DHT22;13364;49.084;9.978;2023-08-17T13:55:08;31.70;57.50
25438;DHT22;13364;49.084;9.978;2023-08-17T13:57:35;31.50;58.00
25438;DHT22;13364;49.084;9.978;2023-08-17T14:00:03;31.30;56.60
25438;DHT22;13364;49.084;9.978;2023-08-17T14:02:31;31.00;58.30
25438;DHT22;13364;49.084;9.978;2023-08-17T14:04:59;30.80;58.10
25438;DHT22;13364;49.084;9.978;2023-08-17T14:07:26;30.70;58.60
25438;DHT22;13364;49.084;9.978;2023-08-17T14:09:53;30.50;58.50
25438;DHT22;13364;49.084;9.978;2023-08-17T14:12:34;30.40;59.60
25438;DHT22;13364;49.084;9.978;2023-08-17T14:15:02;30.20;60.60
25438;DHT22;13364;49.084;9.978;2023-08-17T14:17:29;30.00;61.70
25438;DHT22;13364;49.084;9.978;2023-08-17T14:19:56;29.90;62.90
25438;DHT22;13364;49.084;9.978;2023-08-17T14:22:23;29.60;63.80
25438;DHT22;13364;49.084;9.978;2023-08-17T14:24:51;29.40;63.50
25438;DHT22;13364;49.084;9.978;2023-08-17T14:27:18;29.00;65.10
25438;DHT22;13364;49.084;9.978;2023-08-17T14:29:45;28.70;66.00
25438;DHT22;13364;49.084;9.978;2023-08-17T14:32:14;28.50;66.90
25438;DHT22;13364;49.084;9.978;2023-08-17T14:34:41;28.30;67.90
25438;DHT22;13364;49.084;9.978;2023-08-17T14:37:08;28.00;68.70
25438;DHT22;13364;49.084;9.978;2023-08-17T14:43:00;27.70;70.90
25438;DHT22;13364;49.084;9.978;2023-08-17T14:45:27;27.50;72.00
25438;DHT22;13364;49.084;9.978;2023-08-17T14:47:56;27.40;72.30
25438;DHT22;13364;49.084;9.978;2023-08-17T14:50:25;27.30;72.60
25438;DHT22;13364;49.084;9.978;2023-08-17T14:52:59;27.30;73.20
25438;DHT22;13364;49.084;9.978;2023-08-17T14:55:29;27.20;73.20
25438;DHT22;13364;49.084;9.978;2023-08-17T14:57:57;27.20;73.60
25438;DHT22;13364;49.084;9.978;2023-08-17T15:00:29;27.10;73.70
25438;DHT22;13364;49.084;9.978;2023-08-17T15:02:59;27.10;74.00
25438;DHT22;13364;49.084;9.978;2023-08-17T15:05:27;27.10;74.10
25438;DHT22;13364;49.084;9.978;2023-08-17T15:07:55;27.00;74.60
25438;DHT22;13364;49.084;9.978;2023-08-17T15:10:22;27.00;74.90
25438;DHT22;13364;49.084;9.978;2023-08-17T15:12:50;27.00;74.70
25438;DHT22;13364;49.084;9.978;2023-08-17T15:15:17;27.00;74.60
25438;DHT22;13364;49.084;9.978;2023-08-17T15:17:47;26.90;74.70
25438;DHT22;13364;49.084;9.978;2023-08-17T15:20:14;26.80;74.90
25438;DHT22;13364;49.084;9.978;2023-08-17T15:22:41;26.80;74.70
25438;DHT22;13364;49.084;9.978;2023-08-17T15:25:08;26.80;75.10
25438;DHT22;13364;49.084;9.978;2023-08-17T15:27:35;26.70;75.70
25438;DHT22;13364;49.084;9.978;2023-08-17T15:30:03;26.70;75.70
25438;DHT22;13364;49.084;9.978;2023-08-17T15:32:30;26.60;75.70
25438;DHT22;13364;49.084;9.978;2023-08-17T15:34:57;26.60;75.80
25438;DHT22;13364;49.084;9.978;2023-08-17T15:37:25;26.60;75.80
25438;DHT22;13364;49.084;9.978;2023-08-17T15:39:53;26.60;76.20
25438;DHT22;13364;49.084;9.978;2023-08-17T15:42:20;26.50;76.30
25438;DHT22;13364;49.084;9.978;2023-08-17T15:44:47;26.50;76.40
25438;DHT22;13364;49.084;9.978;2023-08-17T15:47:14;26.50;76.50
25438;DHT22;13364;49.084;9.978;2023-08-17T15:49:41;26.50;76.30
25438;DHT22;13364;49.084;9.978;2023-08-17T15:52:08;26.50;76.70
25438;DHT22;13364;49.084;9.978;2023-08-17T15:54:38;26.50;76.30
25438;DHT22;13364;49.084;9.978;2023-08-17T15:57:05;26.40;76.20
25438;DHT22;13364;49.084;9.978;2023-08-17T15:59:32;26.40;76.00
25438;DHT22;13364;49.084;9.978;2023-08-17T16:02:00;26.30;76.30
25438;DHT22;13364;49.084;9.978;2023-08-17T16:04:27;26.30;76.40
25438;DHT22;13364;49.084;9.978;2023-08-17T16:06:54;26.40;76.40
25438;DHT22;13364;49.084;9.978;2023-08-17T16:09:21;26.40;76.10
25438;DHT22;13364;49.084;9.978;2023-08-17T16:11:48;26.50;76.40
25438;DHT22;13364;49.084;9.978;2023-08-17T16:14:15;26.50;76.50
25438;DHT22;13364;49.084;9.978;2023-08-17T16:16:43;26.60;76.10
25438;DHT22;13364;49.084;9.978;2023-08-17T16:19:10;26.60;76.60
25438;DHT22;13364;49.084;9.978;2023-08-17T16:21:37;26.70;76.30
25438;DHT22;13364;49.084;9.978;2023-08-17T16:24:05;26.70;76.40
25438;DHT22;13364;49.084;9.978;2023-08-17T16:26:32;26.70;76.50
25438;DHT22;13364;49.084;9.978;2023-08-17T16:29:01;26.70;76.80